WMKK Airport Information

Runway Information
Runway 14R Length 13288 ft width 197 ft
Elevation 54 ft Threshold 184 ft Heading 146
Runway 32L Length 13288 ft Width 197 ft
Elevation 48 ft Threshold ft Heading 326
Runway 14L Length 13530 ft width 197 ft
Elevation 55 ft Threshold ft Heading 146
Runway 32R Length 13530 ft Width 197 ft
Elevation 70 ft Threshold 344 ft Heading 326
Runway 15 Length 12993 ft width 197 ft
Elevation 27 ft Threshold ft Heading 146
Runway 33 Length 12993 ft Width 197 ft
Elevation 27 ft Threshold ft Heading 326
Airport Frequencies
Type A/D Name LUMPUR APP Frequency 119.45 MHZ
Type ATIS Name LUMPUR ATI Frequency 126.45 MHZ
Type ATIS Name LUMPUR ATI Frequency 128.05 MHZ
Type CLD Name LUMPUR CLN Frequency 126 MHZ
Type DEPT Name LUMPUR DEP Frequency 135.25 MHZ
Type GND Name LUMPUR GND Frequency 121.65 MHZ
Type GND Name LUMPUR GND Frequency 122.275 MHZ
Type TWR Name LUMPUR TWR Frequency 118.5 MHZ
Type TWR Name LUMPUR TWR Frequency 118.8 MHZ
Type TWR Name LUMPUR TWR Frequency 119.8 MHZ
Airport Navaids
Type VOR-DME Name Kuala Lumpur Frequency 116100 KHZ
Airport Weather Information & NOTAM
ADDS - METARS form results

(0120 UTC 29 May 2022)
Data provider http://aviationweather.gov/metar/data/
 
METAR text: WMKK 290100Z 05003KT 010V110 9999 FEW020 29/25 Q1009 NOSIG
Conditions at: WMKK (KUALA LUMPUR/SUB, MY) observed 0100 UTC 29 May 2022
Temperature: 29.0°C (84°F)
Dewpoint: 25.0°C (77°F) [RH = 79%]
Pressure (altimeter): 29.79 inches Hg (1009.0 mb)
Winds: from the NE (50 degrees) at 3 MPH (3 knots; 1.5 m/s)
Visibility: 6 or more miles (10+ km)
Ceiling: at least 12,000 feet AGL
Clouds: few clouds at 2000 feet AGL
Weather: no significant weather observed at this time

METAR text: WMKK 290030Z 03003KT 340V070 9999 FEW020 27/24 Q1009 NOSIG
Conditions at: WMKK (KUALA LUMPUR/SUB, MY) observed 0030 UTC 29 May 2022
Temperature: 27.0°C (81°F)
Dewpoint: 24.0°C (75°F) [RH = 84%]
Pressure (altimeter): 29.79 inches Hg (1009.0 mb)
Winds: from the NNE (30 degrees) at 3 MPH (3 knots; 1.5 m/s)
Visibility: 6 or more miles (10+ km)
Ceiling: at least 12,000 feet AGL
Clouds: few clouds at 2000 feet AGL
Weather: no significant weather observed at this time

Forecast for: WMKK (KUALA LUMPUR/SUB, MY)
Text: TAF WMKK 282300Z 2900/3006 VRB03KT 9999 FEW018
Forecast period: 0000 UTC 29 May 2022 to 0600 UTC 30 May 2022
Forecast type: FROM: standard forecast or significant change
Winds: variable direction winds at 3 MPH (3 knots; 1.5 m/s)
Visibility: 6 or more miles (10+ km)
Ceiling: at least 12,000 feet AGL
Clouds: few clouds at 1800 feet AGL
Weather: no significant weather forecast for this period